sensor_id;sensor_type;location;lat;lon;timestamp;P1;durP1;ratioP1;P2;durP2;ratioP2
70683;SDS011;58263;48.146;11.440;2023-05-07T00:00:16;5.80;;;4.25;;
70683;SDS011;58263;48.146;11.440;2023-05-07T00:02:43;8.98;;;3.95;;
70683;SDS011;58263;48.146;11.440;2023-05-07T00:05:09;4.57;;;4.03;;
70683;SDS011;58263;48.146;11.440;2023-05-07T00:07:35;5.60;;;4.18;;
70683;SDS011;58263;48.146;11.440;2023-05-07T00:10:00;6.93;;;4.10;;
70683;SDS011;58263;48.146;11.440;2023-05-07T00:12:25;4.80;;;3.83;;
70683;SDS011;58263;48.146;11.440;2023-05-07T00:14:51;4.50;;;3.87;;
70683;SDS011;58263;48.146;11.440;2023-05-07T00:17:16;7.07;;;3.77;;
70683;SDS011;58263;48.146;11.440;2023-05-07T00:19:41;7.13;;;3.97;;
70683;SDS011;58263;48.146;11.440;2023-05-07T00:22:07;8.83;;;3.97;;
70683;SDS011;58263;48.146;11.440;2023-05-07T00:24:32;5.90;;;4.03;;
70683;SDS011;58263;48.146;11.440;2023-05-07T00:26:58;6.00;;;4.20;;
70683;SDS011;58263;48.146;11.440;2023-05-07T00:29:23;7.57;;;3.97;;
70683;SDS011;58263;48.146;11.440;2023-05-07T00:31:49;7.60;;;4.40;;
70683;SDS011;58263;48.146;11.440;2023-05-07T00:34:15;7.80;;;4.32;;
70683;SDS011;58263;48.146;11.440;2023-05-07T00:36:40;6.20;;;3.83;;
70683;SDS011;58263;48.146;11.440;2023-05-07T00:39:05;9.90;;;3.80;;
70683;SDS011;58263;48.146;11.440;2023-05-07T00:41:31;5.22;;;3.30;;
70683;SDS011;58263;48.146;11.440;2023-05-07T00:43:57;8.03;;;4.83;;
70683;SDS011;58263;48.146;11.440;2023-05-07T00:46:22;6.70;;;3.78;;
70683;SDS011;58263;48.146;11.440;2023-05-07T00:48:49;7.82;;;3.85;;
70683;SDS011;58263;48.146;11.440;2023-05-07T00:51:15;5.85;;;3.88;;
70683;SDS011;58263;48.146;11.440;2023-05-07T00:53:41;4.45;;;3.78;;
70683;SDS011;58263;48.146;11.440;2023-05-07T00:56:07;5.88;;;3.92;;
70683;SDS011;58263;48.146;11.440;2023-05-07T00:58:33;5.68;;;3.78;;
70683;SDS011;58263;48.146;11.440;2023-05-07T01:00:58;6.07;;;3.70;;
70683;SDS011;58263;48.146;11.440;2023-05-07T01:03:24;5.57;;;4.32;;
70683;SDS011;58263;48.146;11.440;2023-05-07T01:05:50;6.75;;;4.10;;
70683;SDS011;58263;48.146;11.440;2023-05-07T01:08:17;5.80;;;3.63;;
70683;SDS011;58263;48.146;11.440;2023-05-07T01:10:43;7.00;;;3.90;;
70683;SDS011;58263;48.146;11.440;2023-05-07T01:13:10;4.88;;;3.60;;
70683;SDS011;58263;48.146;11.440;2023-05-07T01:15:37;4.35;;;3.88;;
70683;SDS011;58263;48.146;11.440;2023-05-07T01:18:03;9.60;;;3.75;;
70683;SDS011;58263;48.146;11.440;2023-05-07T01:20:28;5.63;;;3.53;;
70683;SDS011;58263;48.146;11.440;2023-05-07T01:22:54;6.68;;;4.00;;
70683;SDS011;58263;48.146;11.440;2023-05-07T01:25:21;5.03;;;3.33;;
70683;SDS011;58263;48.146;11.440;2023-05-07T01:27:47;6.63;;;3.78;;
70683;SDS011;58263;48.146;11.440;2023-05-07T01:30:12;4.60;;;3.70;;
70683;SDS011;58263;48.146;11.440;2023-05-07T01:35:14;6.40;;;3.50;;
70683;SDS011;58263;48.146;11.440;2023-05-07T01:37:45;4.57;;;3.63;;
70683;SDS011;58263;48.146;11.440;2023-05-07T01:40:12;6.72;;;3.58;;
70683;SDS011;58263;48.146;11.440;2023-05-07T01:42:38;6.90;;;4.00;;
70683;SDS011;58263;48.146;11.440;2023-05-07T01:45:04;5.10;;;3.33;;
70683;SDS011;58263;48.146;11.440;2023-05-07T01:47:30;8.18;;;3.72;;
70683;SDS011;58263;48.146;11.440;2023-05-07T01:49:56;4.22;;;3.50;;
70683;SDS011;58263;48.146;11.440;2023-05-07T01:52:22;3.80;;;3.38;;
70683;SDS011;58263;48.146;11.440;2023-05-07T01:54:47;5.00;;;3.80;;
70683;SDS011;58263;48.146;11.440;2023-05-07T01:57:12;5.00;;;3.77;;
70683;SDS011;58263;48.146;11.440;2023-05-07T01:59:38;5.27;;;3.37;;
70683;SDS011;58263;48.146;11.440;2023-05-07T02:02:03;7.50;;;3.27;;
70683;SDS011;58263;48.146;11.440;2023-05-07T02:04:28;3.97;;;3.43;;
70683;SDS011;58263;48.146;11.440;2023-05-07T02:06:54;6.28;;;3.83;;
70683;SDS011;58263;48.146;11.440;2023-05-07T02:09:19;4.20;;;3.37;;
70683;SDS011;58263;48.146;11.440;2023-05-07T02:11:44;5.60;;;3.80;;
70683;SDS011;58263;48.146;11.440;2023-05-07T02:14:10;4.40;;;3.10;;
70683;SDS011;58263;48.146;11.440;2023-05-07T02:16:35;6.60;;;3.28;;
70683;SDS011;58263;48.146;11.440;2023-05-07T02:19:01;5.88;;;3.38;;
70683;SDS011;58263;48.146;11.440;2023-05-07T02:21:26;4.30;;;3.47;;
70683;SDS011;58263;48.146;11.440;2023-05-07T02:23:51;3.40;;;2.92;;
70683;SDS011;58263;48.146;11.440;2023-05-07T02:26:17;6.30;;;3.53;;
70683;SDS011;58263;48.146;11.440;2023-05-07T02:28:43;4.15;;;3.22;;
70683;SDS011;58263;48.146;11.440;2023-05-07T02:31:08;3.63;;;2.87;;
70683;SDS011;58263;48.146;11.440;2023-05-07T02:33:33;3.80;;;2.97;;
70683;SDS011;58263;48.146;11.440;2023-05-07T02:36:07;4.45;;;3.33;;
70683;SDS011;58263;48.146;11.440;2023-05-07T02:38:33;4.75;;;3.13;;
70683;SDS011;58263;48.146;11.440;2023-05-07T02:40:59;6.55;;;3.88;;
70683;SDS011;58263;48.146;11.440;2023-05-07T02:43:24;4.27;;;3.77;;
70683;SDS011;58263;48.146;11.440;2023-05-07T02:45:59;5.65;;;3.22;;
70683;SDS011;58263;48.146;11.440;2023-05-07T02:48:31;4.65;;;3.00;;
70683;SDS011;58263;48.146;11.440;2023-05-07T02:50:57;6.35;;;3.03;;
70683;SDS011;58263;48.146;11.440;2023-05-07T02:53:23;3.70;;;2.95;;
70683;SDS011;58263;48.146;11.440;2023-05-07T02:55:51;4.32;;;3.17;;
70683;SDS011;58263;48.146;11.440;2023-05-07T02:58:21;3.75;;;3.22;;
70683;SDS011;58263;48.146;11.440;2023-05-07T03:00:46;7.67;;;3.57;;
70683;SDS011;58263;48.146;11.440;2023-05-07T03:03:11;4.90;;;2.90;;
70683;SDS011;58263;48.146;11.440;2023-05-07T03:05:37;4.70;;;3.50;;
70683;SDS011;58263;48.146;11.440;2023-05-07T03:08:02;4.10;;;3.23;;
70683;SDS011;58263;48.146;11.440;2023-05-07T03:10:28;4.65;;;3.10;;
70683;SDS011;58263;48.146;11.440;2023-05-07T03:12:54;4.25;;;3.28;;
70683;SDS011;58263;48.146;11.440;2023-05-07T03:15:20;5.00;;;3.10;;
70683;SDS011;58263;48.146;11.440;2023-05-07T03:17:46;4.20;;;3.38;;
70683;SDS011;58263;48.146;11.440;2023-05-07T03:20:12;4.35;;;3.10;;
70683;SDS011;58263;48.146;11.440;2023-05-07T03:22:37;4.65;;;2.92;;
70683;SDS011;58263;48.146;11.440;2023-05-07T03:25:03;3.92;;;2.97;;
70683;SDS011;58263;48.146;11.440;2023-05-07T03:27:29;3.08;;;2.78;;
70683;SDS011;58263;48.146;11.440;2023-05-07T03:29:55;5.50;;;2.97;;
70683;SDS011;58263;48.146;11.440;2023-05-07T03:32:20;3.80;;;3.13;;
70683;SDS011;58263;48.146;11.440;2023-05-07T03:34:45;4.05;;;3.20;;
70683;SDS011;58263;48.146;11.440;2023-05-07T03:37:11;3.83;;;2.97;;
70683;SDS011;58263;48.146;11.440;2023-05-07T03:39:36;5.03;;;2.97;;
70683;SDS011;58263;48.146;11.440;2023-05-07T03:42:01;3.43;;;3.00;;
70683;SDS011;58263;48.146;11.440;2023-05-07T03:44:27;3.35;;;3.05;;
70683;SDS011;58263;48.146;11.440;2023-05-07T03:46:53;3.20;;;2.90;;
70683;SDS011;58263;48.146;11.440;2023-05-07T03:49:18;3.83;;;3.42;;
70683;SDS011;58263;48.146;11.440;2023-05-07T03:51:43;5.33;;;2.77;;
70683;SDS011;58263;48.146;11.440;2023-05-07T03:54:09;3.87;;;2.90;;
70683;SDS011;58263;48.146;11.440;2023-05-07T03:56:34;5.53;;;3.57;;
70683;SDS011;58263;48.146;11.440;2023-05-07T03:59:00;3.50;;;3.00;;
70683;SDS011;58263;48.146;11.440;2023-05-07T04:01:25;5.80;;;3.13;;
70683;SDS011;58263;48.146;11.440;2023-05-07T04:03:51;6.00;;;3.22;;
70683;SDS011;58263;48.146;11.440;2023-05-07T04:06:16;5.85;;;3.50;;
70683;SDS011;58263;48.146;11.440;2023-05-07T04:08:44;5.20;;;2.95;;
70683;SDS011;58263;48.146;11.440;2023-05-07T04:11:09;3.45;;;2.88;;
70683;SDS011;58263;48.146;11.440;2023-05-07T04:13:35;4.53;;;2.90;;
70683;SDS011;58263;48.146;11.440;2023-05-07T04:16:03;4.18;;;2.95;;
70683;SDS011;58263;48.146;11.440;2023-05-07T04:18:29;3.05;;;2.75;;
70683;SDS011;58263;48.146;11.440;2023-05-07T04:20:55;3.03;;;2.73;;
70683;SDS011;58263;48.146;11.440;2023-05-07T04:23:20;3.93;;;2.70;;
70683;SDS011;58263;48.146;11.440;2023-05-07T04:25:46;6.20;;;2.88;;
70683;SDS011;58263;48.146;11.440;2023-05-07T04:28:11;4.37;;;3.10;;
70683;SDS011;58263;48.146;11.440;2023-05-07T04:30:37;2.97;;;2.67;;
70683;SDS011;58263;48.146;11.440;2023-05-07T04:33:02;3.33;;;2.85;;
70683;SDS011;58263;48.146;11.440;2023-05-07T04:35:28;3.83;;;2.83;;
70683;SDS011;58263;48.146;11.440;2023-05-07T04:37:53;3.28;;;2.75;;
70683;SDS011;58263;48.146;11.440;2023-05-07T04:40:18;3.97;;;2.80;;
70683;SDS011;58263;48.146;11.440;2023-05-07T04:42:44;3.67;;;2.70;;
70683;SDS011;58263;48.146;11.440;2023-05-07T04:45:09;5.40;;;2.93;;
70683;SDS011;58263;48.146;11.440;2023-05-07T04:47:35;5.72;;;2.95;;
70683;SDS011;58263;48.146;11.440;2023-05-07T04:50:01;5.32;;;2.80;;
70683;SDS011;58263;48.146;11.440;2023-05-07T04:52:26;3.13;;;2.80;;
70683;SDS011;58263;48.146;11.440;2023-05-07T04:54:51;5.05;;;3.45;;
70683;SDS011;58263;48.146;11.440;2023-05-07T04:57:17;3.92;;;3.03;;
70683;SDS011;58263;48.146;11.440;2023-05-07T04:59:42;7.68;;;2.90;;
70683;SDS011;58263;48.146;11.440;2023-05-07T05:02:09;3.97;;;2.60;;
70683;SDS011;58263;48.146;11.440;2023-05-07T05:04:35;5.00;;;3.28;;
70683;SDS011;58263;48.146;11.440;2023-05-07T05:07:01;3.67;;;2.83;;
70683;SDS011;58263;48.146;11.440;2023-05-07T05:09:28;3.88;;;2.90;;
70683;SDS011;58263;48.146;11.440;2023-05-07T05:11:53;3.87;;;3.13;;
70683;SDS011;58263;48.146;11.440;2023-05-07T05:14:19;3.17;;;2.87;;
70683;SDS011;58263;48.146;11.440;2023-05-07T05:16:44;3.77;;;2.80;;
70683;SDS011;58263;48.146;11.440;2023-05-07T05:19:09;5.27;;;3.07;;
70683;SDS011;58263;48.146;11.440;2023-05-07T05:21:35;4.30;;;2.83;;
70683;SDS011;58263;48.146;11.440;2023-05-07T05:24:00;3.13;;;2.77;;
70683;SDS011;58263;48.146;11.440;2023-05-07T05:26:26;4.22;;;2.92;;
70683;SDS011;58263;48.146;11.440;2023-05-07T05:28:51;3.22;;;2.92;;
70683;SDS011;58263;48.146;11.440;2023-05-07T05:31:16;3.50;;;2.60;;
70683;SDS011;58263;48.146;11.440;2023-05-07T05:33:42;3.17;;;2.53;;
70683;SDS011;58263;48.146;11.440;2023-05-07T05:36:09;4.07;;;2.70;;
70683;SDS011;58263;48.146;11.440;2023-05-07T05:38:35;7.82;;;4.72;;
70683;SDS011;58263;48.146;11.440;2023-05-07T05:41:00;4.68;;;2.92;;
70683;SDS011;58263;48.146;11.440;2023-05-07T05:43:26;3.67;;;3.28;;
70683;SDS011;58263;48.146;11.440;2023-05-07T05:45:51;5.10;;;3.60;;
70683;SDS011;58263;48.146;11.440;2023-05-07T05:48:16;5.30;;;3.23;;
70683;SDS011;58263;48.146;11.440;2023-05-07T05:50:42;4.63;;;3.17;;
70683;SDS011;58263;48.146;11.440;2023-05-07T05:53:07;5.32;;;3.20;;
70683;SDS011;58263;48.146;11.440;2023-05-07T05:55:32;3.30;;;3.00;;
70683;SDS011;58263;48.146;11.440;2023-05-07T05:57:59;3.88;;;2.75;;
70683;SDS011;58263;48.146;11.440;2023-05-07T06:00:25;4.63;;;3.00;;
70683;SDS011;58263;48.146;11.440;2023-05-07T06:02:51;3.13;;;2.83;;
70683;SDS011;58263;48.146;11.440;2023-05-07T06:05:16;5.77;;;3.33;;
70683;SDS011;58263;48.146;11.440;2023-05-07T06:07:42;4.07;;;3.00;;
70683;SDS011;58263;48.146;11.440;2023-05-07T06:10:07;5.40;;;3.37;;
70683;SDS011;58263;48.146;11.440;2023-05-07T06:12:33;3.78;;;3.33;;
70683;SDS011;58263;48.146;11.440;2023-05-07T06:14:58;4.33;;;3.10;;
70683;SDS011;58263;48.146;11.440;2023-05-07T06:17:23;4.30;;;3.40;;
70683;SDS011;58263;48.146;11.440;2023-05-07T06:19:48;4.40;;;3.13;;
70683;SDS011;58263;48.146;11.440;2023-05-07T06:22:14;4.10;;;3.50;;
70683;SDS011;58263;48.146;11.440;2023-05-07T06:24:39;5.22;;;2.65;;
70683;SDS011;58263;48.146;11.440;2023-05-07T06:27:05;4.03;;;3.17;;
70683;SDS011;58263;48.146;11.440;2023-05-07T06:29:30;4.53;;;3.03;;
70683;SDS011;58263;48.146;11.440;2023-05-07T06:32:05;5.35;;;3.67;;
70683;SDS011;58263;48.146;11.440;2023-05-07T06:34:34;4.78;;;3.10;;
70683;SDS011;58263;48.146;11.440;2023-05-07T06:37:00;3.92;;;2.78;;
70683;SDS011;58263;48.146;11.440;2023-05-07T06:39:26;4.03;;;3.10;;
70683;SDS011;58263;48.146;11.440;2023-05-07T06:41:51;3.23;;;2.60;;
70683;SDS011;58263;48.146;11.440;2023-05-07T06:44:16;4.10;;;3.00;;
70683;SDS011;58263;48.146;11.440;2023-05-07T06:46:42;4.37;;;3.03;;
70683;SDS011;58263;48.146;11.440;2023-05-07T06:49:07;4.13;;;3.23;;
70683;SDS011;58263;48.146;11.440;2023-05-07T06:51:32;4.00;;;2.40;;
70683;SDS011;58263;48.146;11.440;2023-05-07T06:53:58;14.25;;;7.90;;
70683;SDS011;58263;48.146;11.440;2023-05-07T06:56:23;8.60;;;3.30;;
70683;SDS011;58263;48.146;11.440;2023-05-07T06:58:50;5.20;;;2.63;;
70683;SDS011;58263;48.146;11.440;2023-05-07T07:01:15;2.58;;;2.38;;
70683;SDS011;58263;48.146;11.440;2023-05-07T07:03:40;3.87;;;2.27;;
70683;SDS011;58263;48.146;11.440;2023-05-07T07:06:06;3.37;;;2.47;;
70683;SDS011;58263;48.146;11.440;2023-05-07T07:08:31;3.13;;;2.40;;
70683;SDS011;58263;48.146;11.440;2023-05-07T07:10:57;3.57;;;2.40;;
70683;SDS011;58263;48.146;11.440;2023-05-07T07:13:22;3.70;;;2.72;;
70683;SDS011;58263;48.146;11.440;2023-05-07T07:15:48;2.13;;;1.90;;
70683;SDS011;58263;48.146;11.440;2023-05-07T07:18:13;3.97;;;2.15;;
70683;SDS011;58263;48.146;11.440;2023-05-07T07:20:38;3.40;;;2.13;;
70683;SDS011;58263;48.146;11.440;2023-05-07T07:23:04;2.70;;;2.50;;
70683;SDS011;58263;48.146;11.440;2023-05-07T07:25:29;2.30;;;2.10;;
70683;SDS011;58263;48.146;11.440;2023-05-07T07:27:54;3.57;;;2.20;;
70683;SDS011;58263;48.146;11.440;2023-05-07T07:30:20;2.63;;;2.10;;
70683;SDS011;58263;48.146;11.440;2023-05-07T07:32:45;2.42;;;2.10;;
70683;SDS011;58263;48.146;11.440;2023-05-07T07:35:10;2.47;;;2.27;;
70683;SDS011;58263;48.146;11.440;2023-05-07T07:37:36;5.83;;;2.23;;
70683;SDS011;58263;48.146;11.440;2023-05-07T07:40:01;3.90;;;2.28;;
70683;SDS011;58263;48.146;11.440;2023-05-07T07:42:28;2.10;;;2.00;;
70683;SDS011;58263;48.146;11.440;2023-05-07T07:44:54;3.70;;;2.53;;
70683;SDS011;58263;48.146;11.440;2023-05-07T07:47:19;5.07;;;2.65;;
70683;SDS011;58263;48.146;11.440;2023-05-07T07:49:45;5.93;;;2.90;;
70683;SDS011;58263;48.146;11.440;2023-05-07T07:52:10;3.00;;;2.73;;
70683;SDS011;58263;48.146;11.440;2023-05-07T07:54:35;5.30;;;3.33;;
70683;SDS011;58263;48.146;11.440;2023-05-07T07:57:00;10.23;;;3.93;;
70683;SDS011;58263;48.146;11.440;2023-05-07T07:59:26;9.60;;;3.30;;
70683;SDS011;58263;48.146;11.440;2023-05-07T08:01:51;11.98;;;4.18;;
70683;SDS011;58263;48.146;11.440;2023-05-07T08:04:20;26.60;;;11.25;;
70683;SDS011;58263;48.146;11.440;2023-05-07T08:06:46;7.78;;;3.33;;
70683;SDS011;58263;48.146;11.440;2023-05-07T08:09:11;8.73;;;4.45;;
70683;SDS011;58263;48.146;11.440;2023-05-07T08:11:36;12.30;;;5.00;;
70683;SDS011;58263;48.146;11.440;2023-05-07T08:14:02;5.07;;;2.50;;
70683;SDS011;58263;48.146;11.440;2023-05-07T08:16:28;10.73;;;5.18;;
70683;SDS011;58263;48.146;11.440;2023-05-07T08:18:53;3.53;;;2.45;;
70683;SDS011;58263;48.146;11.440;2023-05-07T08:21:19;6.75;;;3.03;;
70683;SDS011;58263;48.146;11.440;2023-05-07T08:23:45;4.03;;;2.08;;
70683;SDS011;58263;48.146;11.440;2023-05-07T08:26:10;6.85;;;2.30;;
70683;SDS011;58263;48.146;11.440;2023-05-07T08:28:36;18.13;;;3.00;;
70683;SDS011;58263;48.146;11.440;2023-05-07T08:31:01;9.75;;;2.65;;
70683;SDS011;58263;48.146;11.440;2023-05-07T08:33:27;22.43;;;3.40;;
70683;SDS011;58263;48.146;11.440;2023-05-07T08:35:52;3.33;;;2.28;;
70683;SDS011;58263;48.146;11.440;2023-05-07T08:38:18;2.38;;;2.17;;
70683;SDS011;58263;48.146;11.440;2023-05-07T08:40:43;3.75;;;2.20;;
70683;SDS011;58263;48.146;11.440;2023-05-07T08:43:08;7.30;;;2.33;;
70683;SDS011;58263;48.146;11.440;2023-05-07T08:45:37;12.57;;;3.15;;
70683;SDS011;58263;48.146;11.440;2023-05-07T08:48:05;11.05;;;2.92;;
70683;SDS011;58263;48.146;11.440;2023-05-07T08:50:37;8.77;;;2.35;;
70683;SDS011;58263;48.146;11.440;2023-05-07T08:53:03;6.30;;;2.08;;
70683;SDS011;58263;48.146;11.440;2023-05-07T08:55:29;3.00;;;2.10;;
70683;SDS011;58263;48.146;11.440;2023-05-07T08:57:55;5.47;;;2.08;;
70683;SDS011;58263;48.146;11.440;2023-05-07T09:00:20;2.15;;;1.90;;
70683;SDS011;58263;48.146;11.440;2023-05-07T09:02:45;6.38;;;2.00;;
70683;SDS011;58263;48.146;11.440;2023-05-07T09:05:11;2.22;;;1.83;;
70683;SDS011;58263;48.146;11.440;2023-05-07T09:07:36;3.20;;;2.07;;
70683;SDS011;58263;48.146;11.440;2023-05-07T09:10:02;3.97;;;1.80;;
70683;SDS011;58263;48.146;11.440;2023-05-07T09:12:29;3.13;;;1.98;;
70683;SDS011;58263;48.146;11.440;2023-05-07T09:14:54;2.28;;;1.92;;
70683;SDS011;58263;48.146;11.440;2023-05-07T09:17:20;1.90;;;1.80;;
70683;SDS011;58263;48.146;11.440;2023-05-07T09:19:45;2.20;;;1.90;;
70683;SDS011;58263;48.146;11.440;2023-05-07T09:22:11;3.55;;;1.90;;
70683;SDS011;58263;48.146;11.440;2023-05-07T09:24:37;2.67;;;1.67;;
70683;SDS011;58263;48.146;11.440;2023-05-07T09:27:06;3.92;;;1.80;;
70683;SDS011;58263;48.146;11.440;2023-05-07T09:29:33;1.60;;;1.50;;
70683;SDS011;58263;48.146;11.440;2023-05-07T09:32:02;3.35;;;1.60;;
70683;SDS011;58263;48.146;11.440;2023-05-07T09:34:31;2.03;;;1.85;;
70683;SDS011;58263;48.146;11.440;2023-05-07T09:37:00;2.45;;;1.73;;
70683;SDS011;58263;48.146;11.440;2023-05-07T09:39:37;3.58;;;1.92;;
70683;SDS011;58263;48.146;11.440;2023-05-07T09:42:04;4.57;;;1.92;;
70683;SDS011;58263;48.146;11.440;2023-05-07T09:44:31;4.45;;;2.25;;
70683;SDS011;58263;48.146;11.440;2023-05-07T09:46:57;6.40;;;1.85;;
70683;SDS011;58263;48.146;11.440;2023-05-07T09:49:25;12.13;;;2.10;;
70683;SDS011;58263;48.146;11.440;2023-05-07T09:51:57;3.50;;;1.85;;
70683;SDS011;58263;48.146;11.440;2023-05-07T09:54:25;5.93;;;1.88;;
70683;SDS011;58263;48.146;11.440;2023-05-07T09:56:52;4.85;;;1.83;;
70683;SDS011;58263;48.146;11.440;2023-05-07T09:59:18;13.25;;;2.20;;
70683;SDS011;58263;48.146;11.440;2023-05-07T10:01:43;8.65;;;2.17;;
70683;SDS011;58263;48.146;11.440;2023-05-07T10:04:10;12.77;;;2.20;;
70683;SDS011;58263;48.146;11.440;2023-05-07T10:06:36;4.60;;;1.90;;
70683;SDS011;58263;48.146;11.440;2023-05-07T10:09:05;2.85;;;1.52;;
70683;SDS011;58263;48.146;11.440;2023-05-07T10:11:34;1.85;;;1.70;;
70683;SDS011;58263;48.146;11.440;2023-05-07T10:14:00;1.92;;;1.60;;
70683;SDS011;58263;48.146;11.440;2023-05-07T10:16:27;2.08;;;1.60;;
70683;SDS011;58263;48.146;11.440;2023-05-07T10:18:56;1.63;;;1.48;;
70683;SDS011;58263;48.146;11.440;2023-05-07T10:21:23;1.73;;;1.63;;
70683;SDS011;58263;48.146;11.440;2023-05-07T10:23:55;3.83;;;2.15;;
70683;SDS011;58263;48.146;11.440;2023-05-07T10:26:24;3.50;;;1.90;;
70683;SDS011;58263;48.146;11.440;2023-05-07T10:28:53;4.13;;;1.92;;
70683;SDS011;58263;48.146;11.440;2023-05-07T10:31:27;5.47;;;1.92;;
70683;SDS011;58263;48.146;11.440;2023-05-07T10:33:55;2.97;;;1.58;;
70683;SDS011;58263;48.146;11.440;2023-05-07T10:36:23;2.10;;;1.85;;
70683;SDS011;58263;48.146;11.440;2023-05-07T10:38:50;1.13;;;1.13;;
70683;SDS011;58263;48.146;11.440;2023-05-07T10:41:15;1.80;;;1.60;;
70683;SDS011;58263;48.146;11.440;2023-05-07T10:43:44;2.20;;;1.90;;
70683;SDS011;58263;48.146;11.440;2023-05-07T10:51:25;3.33;;;1.67;;
70683;SDS011;58263;48.146;11.440;2023-05-07T10:56:42;9.90;;;1.98;;
70683;SDS011;58263;48.146;11.440;2023-05-07T11:01:52;7.28;;;2.10;;
70683;SDS011;58263;48.146;11.440;2023-05-07T11:04:17;6.13;;;1.83;;
70683;SDS011;58263;48.146;11.440;2023-05-07T11:15:05;1.83;;;1.50;;
70683;SDS011;58263;48.146;11.440;2023-05-07T11:17:31;2.17;;;1.60;;
70683;SDS011;58263;48.146;11.440;2023-05-07T11:19:59;2.75;;;1.80;;
70683;SDS011;58263;48.146;11.440;2023-05-07T11:25:05;1.73;;;1.52;;
70683;SDS011;58263;48.146;11.440;2023-05-07T11:27:32;4.72;;;2.50;;
70683;SDS011;58263;48.146;11.440;2023-05-07T11:29:58;1.60;;;1.50;;
70683;SDS011;58263;48.146;11.440;2023-05-07T11:34:55;3.75;;;1.60;;
70683;SDS011;58263;48.146;11.440;2023-05-07T11:37:22;3.33;;;1.70;;
70683;SDS011;58263;48.146;11.440;2023-05-07T11:39:49;3.13;;;1.60;;
70683;SDS011;58263;48.146;11.440;2023-05-07T11:42:29;3.83;;;1.90;;
70683;SDS011;58263;48.146;11.440;2023-05-07T11:44:56;2.42;;;1.55;;
70683;SDS011;58263;48.146;11.440;2023-05-07T11:47:22;2.08;;;1.30;;
70683;SDS011;58263;48.146;11.440;2023-05-07T11:49:51;1.60;;;1.50;;
70683;SDS011;58263;48.146;11.440;2023-05-07T11:52:18;3.38;;;1.70;;
70683;SDS011;58263;48.146;11.440;2023-05-07T11:54:51;2.13;;;1.77;;
70683;SDS011;58263;48.146;11.440;2023-05-07T11:57:20;4.15;;;1.60;;
70683;SDS011;58263;48.146;11.440;2023-05-07T11:59:46;3.42;;;1.88;;
70683;SDS011;58263;48.146;11.440;2023-05-07T12:02:14;1.73;;;1.63;;
70683;SDS011;58263;48.146;11.440;2023-05-07T12:04:40;2.92;;;1.65;;
70683;SDS011;58263;48.146;11.440;2023-05-07T12:07:11;2.00;;;1.80;;
70683;SDS011;58263;48.146;11.440;2023-05-07T12:09:43;2.75;;;2.20;;
70683;SDS011;58263;48.146;11.440;2023-05-07T12:12:09;2.28;;;1.80;;
70683;SDS011;58263;48.146;11.440;2023-05-07T12:14:41;4.72;;;1.95;;
70683;SDS011;58263;48.146;11.440;2023-05-07T12:17:08;3.55;;;1.90;;
70683;SDS011;58263;48.146;11.440;2023-05-07T12:19:35;2.58;;;1.98;;
70683;SDS011;58263;48.146;11.440;2023-05-07T12:22:02;3.42;;;1.88;;
70683;SDS011;58263;48.146;11.440;2023-05-07T12:24:28;2.22;;;1.70;;
70683;SDS011;58263;48.146;11.440;2023-05-07T12:26:53;1.88;;;1.63;;
70683;SDS011;58263;48.146;11.440;2023-05-07T12:29:22;3.40;;;2.03;;
70683;SDS011;58263;48.146;11.440;2023-05-07T12:31:47;3.83;;;1.88;;
70683;SDS011;58263;48.146;11.440;2023-05-07T12:34:14;2.78;;;1.83;;
70683;SDS011;58263;48.146;11.440;2023-05-07T12:36:40;2.13;;;1.67;;
70683;SDS011;58263;48.146;11.440;2023-05-07T12:39:06;3.53;;;1.52;;
70683;SDS011;58263;48.146;11.440;2023-05-07T12:44:01;1.92;;;1.50;;
70683;SDS011;58263;48.146;11.440;2023-05-07T12:46:29;4.53;;;1.98;;
70683;SDS011;58263;48.146;11.440;2023-05-07T12:48:55;2.13;;;1.90;;
70683;SDS011;58263;48.146;11.440;2023-05-07T12:51:20;1.70;;;1.60;;
70683;SDS011;58263;48.146;11.440;2023-05-07T12:53:45;4.67;;;1.90;;
70683;SDS011;58263;48.146;11.440;2023-05-07T12:56:11;3.47;;;1.67;;
70683;SDS011;58263;48.146;11.440;2023-05-07T12:58:36;2.80;;;1.80;;
70683;SDS011;58263;48.146;11.440;2023-05-07T13:01:06;2.95;;;1.90;;
70683;SDS011;58263;48.146;11.440;2023-05-07T13:03:36;4.90;;;1.90;;
70683;SDS011;58263;48.146;11.440;2023-05-07T13:06:04;1.70;;;1.60;;
70683;SDS011;58263;48.146;11.440;2023-05-07T13:08:32;2.28;;;1.70;;
70683;SDS011;58263;48.146;11.440;2023-05-07T13:11:00;6.10;;;2.10;;
70683;SDS011;58263;48.146;11.440;2023-05-07T13:13:30;2.13;;;1.75;;
70683;SDS011;58263;48.146;11.440;2023-05-07T13:15:56;2.45;;;1.63;;
70683;SDS011;58263;48.146;11.440;2023-05-07T13:18:21;3.42;;;1.88;;
70683;SDS011;58263;48.146;11.440;2023-05-07T13:20:47;6.28;;;1.80;;
70683;SDS011;58263;48.146;11.440;2023-05-07T13:23:12;4.93;;;2.10;;
70683;SDS011;58263;48.146;11.440;2023-05-07T13:25:37;10.93;;;2.43;;
70683;SDS011;58263;48.146;11.440;2023-05-07T13:28:03;14.98;;;2.22;;
70683;SDS011;58263;48.146;11.440;2023-05-07T13:30:29;4.15;;;1.60;;
70683;SDS011;58263;48.146;11.440;2023-05-07T13:32:55;8.07;;;2.05;;
70683;SDS011;58263;48.146;11.440;2023-05-07T13:35:23;3.30;;;1.75;;
70683;SDS011;58263;48.146;11.440;2023-05-07T13:37:49;3.97;;;1.65;;
70683;SDS011;58263;48.146;11.440;2023-05-07T13:40:14;1.67;;;1.58;;
70683;SDS011;58263;48.146;11.440;2023-05-07T13:42:40;2.63;;;1.70;;
70683;SDS011;58263;48.146;11.440;2023-05-07T13:45:06;3.17;;;1.70;;
70683;SDS011;58263;48.146;11.440;2023-05-07T13:47:32;5.00;;;1.50;;
70683;SDS011;58263;48.146;11.440;2023-05-07T13:49:57;3.00;;;1.83;;
70683;SDS011;58263;48.146;11.440;2023-05-07T13:52:23;2.43;;;1.60;;
70683;SDS011;58263;48.146;11.440;2023-05-07T13:54:48;2.40;;;1.70;;
70683;SDS011;58263;48.146;11.440;2023-05-07T13:57:13;1.98;;;1.50;;
70683;SDS011;58263;48.146;11.440;2023-05-07T13:59:40;2.00;;;1.80;;
70683;SDS011;58263;48.146;11.440;2023-05-07T14:02:06;3.88;;;1.50;;
70683;SDS011;58263;48.146;11.440;2023-05-07T14:04:31;12.68;;;2.22;;
70683;SDS011;58263;48.146;11.440;2023-05-07T14:06:56;2.72;;;1.80;;
70683;SDS011;58263;48.146;11.440;2023-05-07T14:09:23;2.05;;;1.67;;
70683;SDS011;58263;48.146;11.440;2023-05-07T14:11:48;1.67;;;1.43;;
70683;SDS011;58263;48.146;11.440;2023-05-07T14:14:16;6.03;;;1.80;;
70683;SDS011;58263;48.146;11.440;2023-05-07T14:16:44;2.25;;;1.63;;
70683;SDS011;58263;48.146;11.440;2023-05-07T14:19:11;3.08;;;2.30;;
70683;SDS011;58263;48.146;11.440;2023-05-07T14:21:36;3.60;;;1.50;;
70683;SDS011;58263;48.146;11.440;2023-05-07T14:24:02;2.05;;;1.77;;
70683;SDS011;58263;48.146;11.440;2023-05-07T14:26:27;4.25;;;2.00;;
70683;SDS011;58263;48.146;11.440;2023-05-07T14:28:53;2.88;;;1.88;;
70683;SDS011;58263;48.146;11.440;2023-05-07T14:31:20;2.28;;;2.08;;
70683;SDS011;58263;48.146;11.440;2023-05-07T14:33:46;3.13;;;2.15;;
70683;SDS011;58263;48.146;11.440;2023-05-07T14:36:11;2.45;;;1.77;;
70683;SDS011;58263;48.146;11.440;2023-05-07T14:38:36;2.00;;;1.80;;
70683;SDS011;58263;48.146;11.440;2023-05-07T14:41:02;3.45;;;2.22;;
70683;SDS011;58263;48.146;11.440;2023-05-07T14:43:27;2.63;;;2.10;;
70683;SDS011;58263;48.146;11.440;2023-05-07T14:45:53;3.33;;;2.37;;
70683;SDS011;58263;48.146;11.440;2023-05-07T14:48:18;4.80;;;2.60;;
70683;SDS011;58263;48.146;11.440;2023-05-07T14:50:43;10.10;;;2.40;;
70683;SDS011;58263;48.146;11.440;2023-05-07T14:53:11;5.18;;;2.40;;
70683;SDS011;58263;48.146;11.440;2023-05-07T14:55:37;5.15;;;2.25;;